Terminal Aerodrome Forecast
Issued by NWS

Home | Current Version | Previous Version | Graphics & Text | Print | Product List | Glossary Off
Versions: 1 2 3 4 5 6 7 8 9 10 11 12 13 14 15 16 17 18 19 20 21 22 23 24 25 26 27 28 29 30 31 32 33 34 35

000
FTUS43 KDDC 281120
TAFGCK
TAF
KGCK 281120Z 2812/2912 19012KT P6SM VCTS BKN110CB
     FM281300 18017KT P6SM BKN100
     FM281600 17020G28KT P6SM BKN150
     FM282200 17020G23KT P6SM VCTS BKN040CB
     FM290200 15014KT P6SM BKN120=

USA.gov is the U.S. government's official web portal to all federal, state and local government web resources and services.